Time;durP1;ratioP1;P1;durP2;ratioP2;P2;SDS_P1;SDS_P2;PMS_P1;PMS_P2;Temp;Humidity;BMP_temperature;BMP_pressure;BME280_temperature;BME280_humidity;BME280_pressure;Samples;Min_cycle;Max_cycle;Signal;HPM_P1;HPM_P2
2022/06/06 00:00:53;;;;;;;9.90;4.30;;;;;;;14.30;67.05;99545.53;4841995;29;20515;-82
2022/06/06 00:03:23;;;;;;;7.93;3.88;;;;;;;14.27;66.67;99548.13;4842494;29;20526;-83
2022/06/06 00:05:49;;;;;;;6.45;3.58;;;;;;;14.25;66.68;99547.66;4842032;29;20049;-82
2022/06/06 00:08:17;;;;;;;11.68;4.25;;;;;;;14.26;66.86;99546.53;4842278;29;20046;-82
2022/06/06 00:10:45;;;;;;;7.85;3.90;;;;;;;14.17;66.93;99546.59;4842597;29;20046;-82
2022/06/06 00:13:14;;;;;;;7.43;3.55;;;;;;;14.09;67.33;99552.91;4841967;29;20045;-81
2022/06/06 00:15:41;;;;;;;6.47;3.88;;;;;;;14.13;67.34;99556.59;4842779;29;20508;-82
2022/06/06 00:18:07;;;;;;;13.50;3.97;;;;;;;14.12;67.65;99560.50;4842781;29;20405;-85
2022/06/06 00:20:33;;;;;;;10.23;3.72;;;;;;;14.08;67.37;99554.88;4842374;29;20053;-84
2022/06/06 00:23:00;;;;;;;;;;;;;;;14.15;67.33;99550.78;4825755;29;20127;-84
2022/06/06 00:25:28;;;;;;;5.25;3.70;;;;;;;14.15;67.39;99548.84;4825947;29;20425;-82
2022/06/06 00:27:56;;;;;;;11.63;4.25;;;;;;;14.14;67.36;99547.25;4825824;29;20034;-82
2022/06/06 00:30:22;;;;;;;10.50;3.53;;;;;;;14.04;67.07;99536.63;4842020;29;20535;-82
2022/06/06 00:35:32;;;;;;;9.68;4.13;;;;;;;14.06;67.47;99537.88;4842156;29;20539;-82
2022/06/06 00:38:00;;;;;;;17.20;4.30;;;;;;;14.11;67.21;99553.41;4825186;29;20124;-81
2022/06/06 00:40:27;;;;;;;9.88;3.78;;;;;;;14.07;67.43;99545.00;4841811;29;20482;-83
2022/06/06 00:42:53;;;;;;;8.55;4.13;;;;;;;14.10;67.10;99549.03;4841435;29;20046;-87
2022/06/06 00:45:31;;;;;;;8.70;4.38;;;;;;;14.08;67.37;99549.38;4825176;29;20050;-82
2022/06/06 00:48:15;;;;;;;9.32;4.38;;;;;;;14.06;67.58;99557.13;4795569;29;20513;-82
2022/06/06 00:51:01;;;;;;;12.98;4.40;;;;;;;13.99;67.69;99562.34;4841934;29;20068;-80
2022/06/06 00:53:48;;;;;;;8.15;4.68;;;;;;;13.96;67.91;99556.69;4841374;29;20045;-82
2022/06/06 00:56:29;;;;;;;12.52;4.57;;;;;;;13.93;67.93;99549.09;4841528;29;20049;-82
2022/06/06 00:59:03;;;;;;;10.57;4.10;;;;;;;13.94;67.19;99553.44;4837021;29;20041;-82
2022/06/06 01:01:36;;;;;;;7.75;3.83;;;;;;;14.06;67.40;99565.38;4841461;29;20044;-81
2022/06/06 01:04:04;;;;;;;10.55;4.05;;;;;;;14.07;66.98;99563.41;4841648;29;20046;-81
2022/06/06 01:06:35;;;;;;;7.57;3.92;;;;;;;14.06;67.69;99553.56;4839146;29;20038;-84
2022/06/06 01:09:02;;;;;;;14.32;3.90;;;;;;;14.10;66.94;99560.00;4837247;29;20046;-82
2022/06/06 01:21:27;;;;;;;8.65;4.47;;;;;;;14.10;67.42;99565.50;4840839;29;20050;-86
2022/06/06 01:24:33;;;;;;;14.20;4.13;;;;;;;14.10;67.40;99547.09;4841000;29;20046;-84
2022/06/06 01:27:23;;;;;;;12.63;4.38;;;;;;;14.05;67.70;99551.97;4835123;29;20465;-82
2022/06/06 01:30:01;;;;;;;8.68;4.35;;;;;;;14.06;67.86;99551.63;4839372;29;20427;-82
2022/06/06 01:32:36;;;;;;;12.25;3.85;;;;;;;14.05;67.79;99546.47;4839709;29;20053;-81
2022/06/06 01:35:03;;;;;;;8.60;3.97;;;;;;;14.05;68.04;99555.53;4839400;29;20046;-82
2022/06/06 01:37:40;;;;;;;10.05;4.00;;;;;;;13.94;67.81;99539.72;4840784;29;20125;-82
2022/06/06 01:40:11;;;;;;;6.72;4.32;;;;;;;14.11;67.51;99558.91;4835171;29;20053;-82
2022/06/06 01:42:47;;;;;;;6.13;4.15;;;;;;;14.06;67.64;99564.56;4824071;29;20038;-82
2022/06/06 01:45:40;;;;;;;11.85;3.92;;;;;;;14.09;67.76;99561.97;4824484;29;20046;-82
2022/06/06 01:48:14;;;;;;;9.65;3.88;;;;;;;14.14;67.80;99566.50;4840548;29;20072;-82
2022/06/06 01:50:43;;;;;;;9.88;4.75;;;;;;;14.07;67.97;99542.25;4840825;29;20049;-81
2022/06/06 01:53:12;;;;;;;10.10;4.00;;;;;;;14.15;67.98;99559.03;4840783;29;20066;-81
2022/06/06 01:55:42;;;;;;;15.52;4.38;;;;;;;14.13;67.91;99566.81;4839665;29;20042;-81
2022/06/06 01:58:14;;;;;;;11.52;4.15;;;;;;;14.13;67.56;99550.31;4833984;29;20049;-82
2022/06/06 02:00:41;;;;;;;5.75;3.97;;;;;;;14.17;67.82;99549.34;4840154;29;20490;-82
2022/06/06 02:03:08;;;;;;;7.20;3.92;;;;;;;14.14;67.68;99547.25;4840242;29;20141;-82
2022/06/06 02:05:34;;;;;;;;;;;;;;;14.25;67.58;99556.72;4809926;29;20038;-81
2022/06/06 02:08:00;;;;;;;6.15;4.00;;;;;;;14.24;67.75;99551.56;4818466;29;19964;-82
2022/06/06 02:10:27;;;;;;;14.80;4.45;;;;;;;14.35;67.20;99561.03;4827757;29;20132;-82
2022/06/06 02:12:53;;;;;;;12.10;4.50;;;;;;;14.37;67.65;99560.69;4793374;29;20071;-81
2022/06/06 02:15:25;;;;;;;9.73;4.15;;;;;;;14.41;67.60;99556.16;4840721;29;20042;-82
2022/06/06 02:17:54;;;;;;;12.13;4.85;;;;;;;14.41;67.46;99547.91;4824020;29;20045;-82
2022/06/06 02:20:24;;;;;;;9.85;4.40;;;;;;;14.47;67.25;99554.81;4824036;29;20420;-82
2022/06/06 02:22:50;;;;;;;11.48;4.45;;;;;;;14.41;67.33;99547.91;4840300;29;20042;-81
2022/06/06 02:25:16;;;;;;;10.80;4.65;;;;;;;14.55;67.35;99559.50;4840141;29;20041;-81
2022/06/06 02:27:48;;;;;;;13.02;4.82;;;;;;;14.54;67.16;99561.44;4840537;29;20050;-81
2022/06/06 02:30:20;;;;;;;12.85;4.72;;;;;;;14.60;66.96;99558.47;4833502;29;20137;-81
2022/06/06 02:32:47;;;;;;;9.77;5.00;;;;;;;14.51;67.35;99558.56;4839774;29;20046;-81
2022/06/06 02:35:23;;;;;;;12.95;5.13;;;;;;;14.53;67.38;99553.50;4839478;29;20103;-81
2022/06/06 02:37:52;;;;;;;9.57;5.03;;;;;;;14.57;67.30;99555.28;4839810;29;20046;-82
2022/06/06 02:40:20;;;;;;;18.73;4.95;;;;;;;14.61;67.22;99560.13;4839678;29;20088;-82
2022/06/06 02:42:46;;;;;;;8.23;4.90;;;;;;;14.60;67.45;99556.53;4839932;29;20077;-82
2022/06/06 02:45:15;;;;;;;13.00;5.03;;;;;;;14.71;67.73;99567.97;4822299;29;20042;-82
2022/06/06 02:47:46;;;;;;;12.23;4.68;;;;;;;14.72;66.89;99562.13;4840442;29;20291;-82
2022/06/06 02:50:15;;;;;;;11.90;5.22;;;;;;;14.79;67.12;99573.41;4840195;29;20201;-83
2022/06/06 02:52:43;;;;;;;12.82;5.03;;;;;;;14.70;67.00;99577.34;4840197;29;20042;-83
2022/06/06 02:55:11;;;;;;;10.18;4.70;;;;;;;14.79;67.09;99564.34;4839649;29;20125;-81
2022/06/06 02:57:40;;;;;;;13.05;5.03;;;;;;;14.80;67.23;99572.28;4833169;29;20058;-81
2022/06/06 03:00:09;;;;;;;11.43;4.88;;;;;;;14.78;66.61;99569.03;4838621;29;20042;-81
2022/06/06 03:02:36;;;;;;;10.50;5.40;;;;;;;14.83;67.13;99567.22;4838993;29;20045;-82
2022/06/06 03:05:04;;;;;;;10.02;5.57;;;;;;;14.90;67.32;99573.81;4837299;29;20042;-82
2022/06/06 03:07:54;;;;;;;14.23;5.70;;;;;;;14.94;66.88;99573.97;4840517;29;20038;-82
2022/06/06 03:10:32;;;;;;;19.15;5.18;;;;;;;14.92;66.21;99577.03;4844037;29;20046;-83
2022/06/06 03:13:25;;;;;;;11.55;5.07;;;;;;;14.98;66.35;99574.91;4826454;29;20066;-82
2022/06/06 03:22:22;;;;;;;16.73;5.63;;;;;;;14.92;66.16;99593.56;4839057;29;20049;-83
2022/06/06 03:25:03;;;;;;;14.95;5.63;;;;;;;14.86;66.25;99577.56;4839488;29;20045;-82
2022/06/06 03:27:39;;;;;;;13.63;5.82;;;;;;;14.91;66.33;99577.38;5325352;23;20061;-82
2022/06/06 03:30:13;;;;;;;28.10;6.45;;;;;;;15.07;66.65;99583.91;4863108;29;20040;-82
2022/06/06 03:33:03;;;;;;;14.55;6.28;;;;;;;15.17;65.73;99580.72;4880576;29;20041;-82
2022/06/06 03:35:57;;;;;;;10.38;5.57;;;;;;;15.17;65.95;99586.25;4873659;29;20092;-82
2022/06/06 03:38:30;;;;;;;11.52;5.90;;;;;;;15.09;66.28;99595.38;4862586;29;20045;-82
2022/06/06 03:41:21;;;;;;;11.07;5.20;;;;;;;15.07;65.65;99594.91;4879741;29;20041;-83
2022/06/06 03:44:17;;;;;;;11.50;5.70;;;;;;;15.12;66.19;99586.44;4847676;29;20040;-82
2022/06/06 03:47:34;;;;;;;14.87;5.90;;;;;;;15.22;65.80;99590.72;4876289;29;20045;-81
2022/06/06 03:50:28;;;;;;;12.23;6.15;;;;;;;15.37;65.68;99603.09;4843875;29;20326;-82
2022/06/06 03:53:15;;;;;;;22.33;6.43;;;;;;;15.36;65.44;99593.19;4879047;29;20049;-82
2022/06/06 03:56:17;;;;;;;14.93;5.75;;;;;;;15.28;65.82;99595.69;4873268;29;20063;-82
2022/06/06 03:58:46;;;;;;;22.10;6.07;;;;;;;15.40;65.94;99596.91;4946048;23;20058;-82
2022/06/06 04:01:14;;;;;;;13.60;6.07;;;;;;;15.47;65.54;99597.97;4861071;29;20072;-82
2022/06/06 04:03:43;;;;;;;15.55;6.03;;;;;;;15.60;65.84;99606.28;4860768;29;20040;-83
2022/06/06 04:06:09;;;;;;;16.65;6.07;;;;;;;15.68;65.74;99606.19;4844102;29;20141;-83
2022/06/06 04:08:35;;;;;;;20.37;6.93;;;;;;;15.61;65.07;99603.16;4859688;29;20044;-82
2022/06/06 04:11:30;;;;;;;18.60;6.05;;;;;;;15.62;64.95;99602.00;4858852;29;20372;-82
2022/06/06 04:14:35;;;;;;;17.38;6.18;;;;;;;15.69;64.71;99595.97;4859749;29;20116;-83
2022/06/06 04:17:22;;;;;;;11.93;5.88;;;;;;;15.60;64.01;99587.78;4820436;29;20060;-83
2022/06/06 04:20:08;;;;;;;17.52;6.43;;;;;;;15.66;64.03;99597.50;4859784;29;20037;-84
2022/06/06 04:23:07;;;;;;;15.02;5.47;;;;;;;15.65;64.50;99578.50;4860667;29;20411;-84
2022/06/06 04:25:43;;;;;;;11.75;5.95;;;;;;;15.88;63.63;99589.94;4842502;29;20052;-83
2022/06/06 04:28:28;;;;;;;15.10;5.77;;;;;;;15.87;63.82;99578.13;4858581;29;20074;-85
2022/06/06 04:31:01;;;;;;;10.90;5.88;;;;;;;15.91;63.79;99575.47;4861162;29;20290;-83
2022/06/06 04:33:46;;;;;;;10.55;5.40;;;;;;;16.04;63.36;99590.91;4867971;29;20042;-82
2022/06/06 04:36:31;;;;;;;11.07;6.13;;;;;;;16.16;62.38;99595.63;4857457;29;20057;-87
2022/06/06 04:39:30;;;;;;;19.20;6.50;;;;;;;16.02;62.65;99584.91;4860235;29;20052;-85
2022/06/06 04:42:04;;;;;;;13.98;6.32;;;;;;;16.10;63.40;99600.56;4860007;29;20423;-85
2022/06/06 04:45:12;;;;;;;13.80;6.30;;;;;;;16.14;63.54;99595.97;4858523;29;20097;-83
2022/06/06 04:47:41;;;;;;;13.13;5.70;;;;;;;16.31;62.49;99605.97;4843613;29;20047;-82
2022/06/06 04:50:10;;;;;;;12.93;5.60;;;;;;;16.38;61.55;99614.47;4860030;29;20041;-83
2022/06/06 04:52:41;;;;;;;10.90;5.90;;;;;;;16.52;62.14;99610.56;4827844;29;20128;-81
2022/06/06 04:55:11;;;;;;;9.85;5.63;;;;;;;16.55;61.81;99604.34;4843440;29;20519;-87
2022/06/06 04:57:41;;;;;;;14.77;5.80;;;;;;;16.56;61.07;99614.28;4859709;29;20049;-85
2022/06/06 05:00:09;;;;;;;17.08;6.75;;;;;;;16.53;60.34;99612.19;4825258;29;20086;-85
2022/06/06 05:02:35;;;;;;;;;;;;;;;16.68;60.87;99623.31;4810576;29;20046;-83
2022/06/06 05:05:02;;;;;;;;;;;;;;;16.79;60.78;99622.91;4859726;29;20019;-83
2022/06/06 05:07:34;;;;;;;;;;;;;;;16.91;60.60;99633.91;4828670;29;20022;-83
2022/06/06 05:10:21;;;;;;;11.57;6.25;;;;;;;16.94;59.54;99618.63;4858145;29;19980;-85
2022/06/06 05:13:10;;;;;;;12.52;6.43;;;;;;;16.92;58.12;99635.53;4857367;29;20073;-83
2022/06/06 05:15:45;;;;;;;19.27;6.35;;;;;;;16.99;58.84;99630.22;4858703;29;20041;-82
2022/06/06 05:18:28;;;;;;;17.52;5.82;;;;;;;17.13;57.35;99643.66;4859809;29;20049;-82
2022/06/06 05:21:24;;;;;;;16.40;5.95;;;;;;;17.20;57.55;99638.34;4857940;29;20042;-82
2022/06/06 05:24:15;;;;;;;33.08;6.40;;;;;;;17.40;56.88;99644.06;4859073;29;20136;-82
2022/06/06 05:27:00;;;;;;;18.25;5.90;;;;;;;17.36;55.48;99639.22;4859471;29;20042;-86
2022/06/06 05:29:45;;;;;;;14.27;5.60;;;;;;;17.40;55.67;99644.06;4841920;29;20064;-82
2022/06/06 05:32:20;;;;;;;18.15;5.25;;;;;;;17.34;55.22;99647.06;4852726;29;20049;-84
2022/06/06 05:34:52;;;;;;;12.45;5.18;;;;;;;17.39;54.87;99643.25;4859095;29;20065;-83
2022/06/06 05:37:24;;;;;;;14.68;4.50;;;;;;;17.52;55.23;99636.53;4827667;29;20474;-84
2022/06/06 05:40:07;;;;;;;15.60;4.65;;;;;;;17.53;54.48;99635.34;4858482;29;20587;-83
2022/06/06 05:42:58;;;;;;;9.35;4.40;;;;;;;17.59;54.52;99641.44;4856002;29;20069;-83
2022/06/06 05:45:44;;;;;;;14.15;4.68;;;;;;;17.53;53.90;99629.84;4828314;29;20132;-89
2022/06/06 05:48:25;;;;;;;11.67;4.40;;;;;;;17.52;53.18;99644.81;4952660;23;20080;-86
2022/06/06 05:51:07;;;;;;;17.98;5.47;;;;;;;17.52;54.03;99650.34;4858291;29;20297;-83
2022/06/06 05:54:19;;;;;;;18.40;5.35;;;;;;;17.47;54.71;99653.34;4870155;29;20503;-85
2022/06/06 05:56:54;;;;;;;31.50;5.72;;;;;;;17.55;54.28;99657.94;4810617;29;20045;-84
2022/06/06 05:59:48;;;;;;;9.77;5.28;;;;;;;17.62;53.47;99654.56;4870891;29;20472;-83
2022/06/06 06:02:16;;;;;;;29.37;6.10;;;;;;;17.74;54.25;99648.16;4859111;29;20188;-84
2022/06/06 06:04:49;;;;;;;42.77;7.20;;;;;;;17.91;54.21;99649.84;4855301;29;20048;-84
2022/06/06 06:07:33;;;;;;;19.00;6.20;;;;;;;18.04;54.46;99652.19;4864108;29;20074;-84
2022/06/06 06:10:32;;;;;;;46.20;8.98;;;;;;;18.05;53.47;99645.50;4844339;29;20045;-85
2022/06/06 06:13:10;;;;;;;12.77;5.55;;;;;;;18.10;53.41;99647.19;4865082;29;20093;-85
2022/06/06 06:15:40;;;;;;;21.17;5.40;;;;;;;18.21;53.85;99655.78;4853285;29;20053;-85
2022/06/06 06:18:16;;;;;;;23.50;6.18;;;;;;;18.26;52.80;99647.22;4865938;29;20046;-86
2022/06/06 06:20:52;;;;;;;57.35;9.18;;;;;;;18.30;51.98;99637.84;4849299;29;20432;-86
2022/06/06 06:23:24;;;;;;;68.22;10.02;;;;;;;18.34;52.93;99650.97;4872761;29;20572;-85
2022/06/06 06:25:53;;;;;;;42.08;8.73;;;;;;;18.41;52.50;99651.97;4848037;29;20045;-84
2022/06/06 06:28:19;;;;;;;32.97;6.32;;;;;;;18.37;52.17;99628.09;4857497;29;20037;-84
2022/06/06 06:31:14;;;;;;;23.10;7.05;;;;;;;18.57;51.60;99645.59;4840594;29;20064;-84
2022/06/06 06:34:19;;;;;;;68.80;9.68;;;;;;;18.75;51.61;99644.09;4849995;29;20156;-86
2022/06/06 06:36:53;;;;;;;29.85;6.43;;;;;;;18.77;50.48;99633.44;4803970;29;20415;-85
2022/06/06 06:39:31;;;;;;;47.75;7.25;;;;;;;18.84;50.15;99647.50;4842503;29;20049;-86
2022/06/06 06:42:40;;;;;;;32.38;6.60;;;;;;;18.79;49.53;99642.22;4860876;29;20045;-85
2022/06/06 06:45:12;;;;;;;16.73;5.38;;;;;;;18.79;49.70;99631.13;4751099;29;20101;-85
2022/06/06 06:47:50;;;;;;;20.77;6.15;;;;;;;18.81;50.14;99631.59;4739921;30;20048;-85
2022/06/06 06:50:30;;;;;;;18.10;5.70;;;;;;;18.90;49.47;99628.59;4747228;30;20055;-83
2022/06/06 06:53:24;;;;;;;30.88;5.53;;;;;;;19.04;50.41;99628.94;4765634;30;20116;-85
2022/06/06 07:08:33;;;;;;;17.70;5.68;;;;;;;19.78;48.87;99614.22;4845620;29;20049;-83
2022/06/06 07:11:29;;;;;;;23.52;6.10;;;;;;;20.02;48.46;99619.44;4864378;29;20053;-84
2022/06/06 07:14:02;;;;;;;18.75;5.03;;;;;;;20.01;48.48;99623.38;4854911;29;20515;-83
2022/06/06 07:16:38;;;;;;;13.38;5.72;;;;;;;19.86;47.82;99618.72;4862069;29;20052;-84
2022/06/06 07:19:19;;;;;;;9.10;5.35;;;;;;;19.95;47.33;99624.84;4864440;29;20048;-86
2022/06/06 07:21:47;;;;;;;25.80;6.18;;;;;;;19.99;48.12;99616.59;4850494;29;20043;-84
2022/06/06 07:24:19;;;;;;;48.33;7.10;;;;;;;20.07;48.05;99626.66;4860261;29;20540;-84
2022/06/06 07:26:46;;;;;;;15.45;5.75;;;;;;;20.37;47.55;99627.56;4847243;29;20045;-83
2022/06/06 07:29:15;;;;;;;34.50;7.65;;;;;;;20.25;46.33;99629.75;4858274;29;20041;-86
2022/06/06 07:32:12;;;;;;;19.25;5.75;;;;;;;20.06;46.36;99633.38;4855394;29;20231;-86
2022/06/06 07:34:57;;;;;;;14.82;4.82;;;;;;;19.90;47.94;99623.19;4862040;29;20041;-84
2022/06/06 07:37:31;;;;;;;12.40;5.28;;;;;;;19.86;48.02;99624.28;4853790;29;20046;-85
2022/06/06 07:40:32;;;;;;;15.65;6.00;;;;;;;19.85;46.49;99617.94;4826661;29;20037;-83
2022/06/06 07:43:10;;;;;;;20.50;5.88;;;;;;;20.08;47.53;99612.41;4835912;29;20057;-82
2022/06/06 07:45:44;;;;;;;20.77;5.78;;;;;;;20.14;46.32;99615.69;4855550;29;20423;-85
2022/06/06 07:48:17;;;;;;;26.67;6.18;;;;;;;20.16;46.59;99616.09;4859766;29;20064;-83
2022/06/06 07:51:06;;;;;;;20.83;4.85;;;;;;;19.95;47.61;99624.84;4863135;29;20041;-83
2022/06/06 07:54:04;;;;;;;14.43;5.57;;;;;;;19.76;45.63;99628.44;4855259;29;20053;-83
2022/06/06 07:56:57;;;;;;;12.77;5.43;;;;;;;19.62;46.68;99625.38;4849750;29;20045;-84
2022/06/06 07:59:42;;;;;;;12.77;5.30;;;;;;;19.87;46.96;99626.69;4837142;29;21023;-83
2022/06/06 08:02:31;;;;;;;12.10;5.47;;;;;;;20.30;47.26;99627.47;4807567;29;20052;-83
2022/06/06 08:05:20;;;;;;;19.40;5.72;;;;;;;20.33;46.65;99612.84;4822776;29;20033;-83
2022/06/06 08:07:58;;;;;;;7.47;4.28;;;;;;;20.10;46.33;99606.50;4821333;29;20040;-83
2022/06/06 08:10:34;;;;;;;25.95;5.75;;;;;;;20.03;46.76;99604.38;4833872;29;20064;-84
2022/06/06 08:13:13;;;;;;;21.58;5.53;;;;;;;19.89;47.03;99604.91;4833826;29;20041;-83
2022/06/06 08:25:32;;;;;;;25.63;5.57;;;;;;;19.98;47.79;99606.66;4847856;29;20049;-82
2022/06/06 08:28:21;;;;;;;;;;;;;;;20.21;46.66;99601.91;4849073;29;20101;-83
2022/06/06 08:30:47;;;;;;;20.98;6.18;;;;;;;20.16;45.67;99596.66;4851080;29;19980;-86
2022/06/06 08:33:13;;;;;;;19.48;5.55;;;;;;;19.98;45.07;99595.56;4852046;29;20048;-88
2022/06/06 08:42:29;;;;;;;14.02;4.60;;;;;;;19.82;45.71;99610.34;4869144;29;20837;-88
2022/06/06 08:45:27;;;;;;;14.98;4.80;;;;;;;19.77;45.22;99607.88;4852731;29;20079;-87
2022/06/06 08:51:29;;;;;;;24.50;5.63;;;;;;;19.85;45.73;99606.84;4842338;29;20040;-90
2022/06/06 09:17:42;;;;;;;9.07;4.05;;;;;;;20.42;42.01;99587.56;5181049;23;20463;-83
2022/06/06 09:21:01;;;;;;;8.77;4.13;;;;;;;20.50;42.48;99571.84;4810460;29;20088;-89
2022/06/06 09:43:44;;;;;;;14.25;4.68;;;;;;;21.30;42.09;99578.13;5717407;23;20041;-85
2022/06/06 09:46:50;;;;;;;28.17;5.75;;;;;;;21.68;41.42;99579.75;4817158;29;20503;-86
2022/06/06 09:49:53;;;;;;;27.63;4.80;;;;;;;22.09;39.99;99576.22;4828545;29;20050;-86
2022/06/06 09:52:49;;;;;;;22.45;4.13;;;;;;;21.94;41.02;99569.69;4818586;29;20106;-85
2022/06/06 10:01:45;;;;;;;9.30;4.22;;;;;;;21.57;40.00;99559.38;4826182;29;20155;-85
2022/06/06 10:04:29;;;;;;;11.85;4.32;;;;;;;21.62;40.20;99581.28;4828098;29;20259;-86
2022/06/06 10:07:26;;;;;;;18.85;4.22;;;;;;;21.60;39.99;99575.31;4807604;29;20103;-86
2022/06/06 10:10:20;;;;;;;14.88;3.97;;;;;;;21.66;41.06;99582.16;4736633;29;20613;-84
2022/06/06 10:13:25;;;;;;;32.53;5.10;;;;;;;21.77;39.27;99573.91;4786155;29;20522;-83
2022/06/06 10:16:17;;;;;;;12.93;3.83;;;;;;;21.94;38.79;99564.91;4783066;29;20039;-86
2022/06/06 10:19:22;;;;;;;12.13;3.72;;;;;;;21.85;39.04;99569.19;4810381;29;20492;-87
2022/06/06 11:31:03;;;;;;;12.98;4.15;;;;;;;22.14;37.53;99534.88;5043150;23;20056;-85
2022/06/06 13:07:53;;;;;;;29.73;2.90;;;;;;;24.66;26.75;99461.81;4799320;29;20045;-84
2022/06/06 13:18:15;;;;;;;4.30;2.10;;;;;;;24.89;27.41;99478.91;4826830;29;20060;-85
2022/06/06 13:20:58;;;;;;;13.38;3.58;;;;;;;24.97;27.50;99460.91;4847962;29;20045;-84
2022/06/06 13:23:58;;;;;;;7.55;2.35;;;;;;;25.08;27.13;99464.44;4821728;29;20045;-82
2022/06/06 13:26:39;;;;;;;13.30;3.00;;;;;;;25.24;29.67;99466.78;4849804;29;20053;-90
2022/06/06 13:29:06;;;;;;;11.90;2.47;;;;;;;25.50;27.59;99470.22;4852181;29;20133;-87
2022/06/06 13:31:57;;;;;;;5.75;2.55;;;;;;;25.46;28.83;99459.03;4854400;29;20052;-86
2022/06/06 13:34:42;;;;;;;51.30;4.55;;;;;;;25.04;29.23;99472.03;4876201;29;20180;-87
2022/06/06 13:37:12;;;;;;;17.80;3.65;;;;;;;24.70;29.94;99469.00;4859464;29;20052;-84
2022/06/06 13:40:16;;;;;;;16.77;3.65;;;;;;;24.37;28.15;99473.03;4828389;29;20037;-87
2022/06/06 13:42:49;;;;;;;16.23;3.15;;;;;;;24.04;28.30;99475.09;4821057;29;20511;-85
2022/06/06 13:45:24;;;;;;;10.00;2.58;;;;;;;23.68;28.46;99463.94;4856947;29;20547;-87
2022/06/06 13:48:18;;;;;;;13.85;2.80;;;;;;;23.64;30.07;99477.06;4824070;29;20077;-85
2022/06/06 13:51:08;;;;;;;18.92;3.42;;;;;;;23.54;29.73;99482.63;4822415;29;20049;-88
2022/06/06 13:53:57;;;;;;;22.05;2.65;;;;;;;23.40;29.86;99475.81;4826973;29;20052;-85
2022/06/06 13:56:53;;;;;;;22.25;3.28;;;;;;;23.33;31.04;99495.34;4828573;29;20503;-89
2022/06/06 13:59:48;;;;;;;23.13;3.83;;;;;;;23.21;31.27;99487.31;4848908;29;20057;-87
2022/06/06 14:02:41;;;;;;;6.45;2.60;;;;;;;23.05;31.92;99487.69;4853340;29;20301;-87
2022/06/06 14:05:48;;;;;;;9.80;2.65;;;;;;;22.91;32.74;99493.16;4852172;29;20049;-89
2022/06/06 14:08:20;;;;;;;17.50;2.72;;;;;;;22.59;32.56;99482.69;4863881;29;20669;-91
2022/06/06 14:11:42;;;;;;;5.30;2.00;;;;;;;22.52;32.49;99488.22;4852622;29;20068;-86
2022/06/06 14:14:09;;;;;;;44.08;5.25;;;;;;;22.52;32.63;99488.22;4839783;29;20050;-86
2022/06/06 14:16:41;;;;;;;32.13;4.07;;;;;;;22.57;32.91;99492.59;4852519;29;20042;-86
2022/06/06 14:19:19;;;;;;;26.08;3.95;;;;;;;22.63;32.70;99491.84;4856529;29;20061;-89
2022/06/06 14:21:54;;;;;;;40.38;4.13;;;;;;;22.57;34.12;99473.09;4855508;29;20080;-87
2022/06/06 14:24:29;;;;;;;14.65;3.13;;;;;;;22.61;33.96;99479.50;4848732;29;20052;-88
2022/06/06 14:27:04;;;;;;;30.60;3.17;;;;;;;22.61;32.00;99493.44;4807615;29;20040;-89
2022/06/06 14:29:37;;;;;;;20.40;3.97;;;;;;;22.49;31.49;99477.84;4848845;29;20050;-86
2022/06/06 14:32:23;;;;;;;44.90;3.60;;;;;;;22.54;32.34;99485.03;4844362;29;20046;-91
2022/06/06 14:35:22;;;;;;;42.05;5.05;;;;;;;22.45;32.56;99493.72;4828730;29;20112;-90
2022/06/06 14:37:49;;;;;;;23.08;3.88;;;;;;;22.37;33.08;99475.38;4848866;29;20050;-88
2022/06/06 14:40:39;;;;;;;18.45;3.08;;;;;;;22.16;32.47;99485.19;4837506;29;20053;-89
2022/06/06 14:43:07;;;;;;;41.47;3.92;;;;;;;22.20;32.98;99499.16;4840295;29;20175;-89
2022/06/06 14:45:37;;;;;;;32.65;3.05;;;;;;;21.90;35.64;99494.50;4802364;29;20038;-86
2022/06/06 14:48:12;;;;;;;71.15;5.57;;;;;;;21.91;37.17;99514.78;4836515;29;20049;-87
2022/06/06 14:51:00;;;;;;;71.18;5.78;;;;;;;21.70;38.47;99520.97;4813487;29;20050;-88
2022/06/06 14:53:56;;;;;;;21.58;4.65;;;;;;;21.16;42.26;99536.22;4809043;29;20034;-89
2022/06/06 14:56:30;;;;;;;26.73;4.38;;;;;;;20.80;46.83;99544.13;4844755;29;20068;-90
2022/06/06 14:59:05;;;;;;;12.65;4.75;;;;;;;20.29;46.85;99542.56;4853440;29;20125;-87
2022/06/06 15:01:31;;;;;;;17.73;3.80;;;;;;;20.00;48.81;99551.59;4810123;29;20053;-90
2022/06/06 15:04:00;;;;;;;5.13;2.38;;;;;;;19.83;47.94;99550.91;4853847;29;20049;-87
2022/06/06 15:06:29;;;;;;;11.90;4.60;;;;;;;19.52;49.71;99529.72;4832310;29;20045;-92
2022/06/06 15:09:29;;;;;;;11.98;2.28;;;;;;;19.51;48.88;99546.75;4828090;29;20046;-94
2022/06/06 15:11:55;;;;;;;7.68;3.33;;;;;;;19.31;50.76;99545.97;4850747;29;20045;-93
2022/06/06 15:14:26;;;;;;;7.00;3.00;;;;;;;19.32;49.54;99555.88;4863715;29;20085;-90
2022/06/06 15:16:54;;;;;;;11.70;2.30;;;;;;;19.31;49.06;99552.31;4870264;29;20148;-90
2022/06/06 15:19:28;;;;;;;6.43;3.28;;;;;;;19.31;49.32;99551.50;4860656;29;20049;-88
2022/06/06 15:22:00;;;;;;;13.77;2.70;;;;;;;19.20;50.24;99541.00;4837944;29;20033;-86
2022/06/06 15:24:43;;;;;;;14.80;7.00;;;;;;;19.08;49.68;99538.38;4863558;29;20116;-89
2022/06/06 15:27:43;;;;;;;14.68;5.57;;;;;;;19.00;50.01;99529.09;4869794;29;20049;-85
2022/06/06 15:30:14;;;;;;;14.63;7.03;;;;;;;19.19;54.09;99539.38;4852209;29;20146;-89
2022/06/06 15:32:48;;;;;;;16.35;6.55;;;;;;;19.13;53.09;99542.81;4863757;29;20037;-89
2022/06/06 15:35:37;;;;;;;13.70;4.83;;;;;;;19.18;52.41;99551.66;4842808;29;20045;-91
2022/06/06 15:38:13;;;;;;;13.70;4.22;;;;;;;19.18;51.73;99545.31;4813980;29;20050;-91
2022/06/06 15:40:47;;;;;;;25.77;4.95;;;;;;;19.19;52.74;99535.81;4844621;29;20048;-91
2022/06/06 15:43:27;;;;;;;19.45;5.00;;;;;;;19.28;52.37;99544.72;4886395;29;20072;-89
2022/06/06 15:46:34;;;;;;;20.80;3.30;;;;;;;19.26;50.90;99535.94;4868387;29;20116;-89
2022/06/06 15:49:24;;;;;;;14.00;3.38;;;;;;;19.25;50.40;99526.84;4824709;29;20053;-90
2022/06/06 15:52:01;;;;;;;16.10;2.95;;;;;;;19.32;49.40;99528.94;4846673;29;20061;-87
2022/06/06 15:54:27;;;;;;;13.98;3.03;;;;;;;19.40;49.50;99546.50;4859937;29;20041;-89
2022/06/06 15:57:17;;;;;;;5.38;2.85;;;;;;;19.40;49.48;99544.56;4842820;29;20041;-90
2022/06/06 16:00:16;;;;;;;12.45;3.05;;;;;;;19.43;50.80;99549.34;4864231;29;20128;-92
2022/06/06 16:05:49;;;;;;;8.38;2.85;;;;;;;19.43;49.96;99540.22;5219770;23;20061;-90
2022/06/06 16:08:40;;;;;;;10.30;2.60;;;;;;;19.45;49.69;99541.47;4826944;29;20045;-93
2022/06/06 16:11:31;;;;;;;12.80;3.13;;;;;;;19.42;49.95;99535.88;4802681;29;20050;-91
2022/06/06 16:14:28;;;;;;;12.15;3.08;;;;;;;19.60;50.50;99542.56;4801272;29;20046;-85
2022/06/06 16:16:59;;;;;;;12.68;2.92;;;;;;;19.71;49.66;99540.81;4821535;29;20045;-94
2022/06/06 16:19:42;;;;;;;10.95;2.60;;;;;;;19.71;48.88;99540.00;4831551;29;20056;-94
2022/06/06 16:22:30;;;;;;;12.35;3.20;;;;;;;19.84;47.98;99527.56;4849428;29;20038;-86
2022/06/06 16:25:13;;;;;;;10.50;2.75;;;;;;;19.91;48.04;99524.91;4843611;29;20046;-93
2022/06/06 16:28:02;;;;;;;;;;;;;;;19.91;47.47;99540.75;4833354;29;20521;-85
2022/06/06 16:30:35;;;;;;;10.25;3.20;;;;;;;19.92;49.43;99545.13;4799166;29;19928;-84
2022/06/06 16:33:01;;;;;;;14.55;3.28;;;;;;;19.70;48.54;99530.06;4784679;29;20516;-90
2022/06/06 16:35:32;;;;;;;12.52;2.70;;;;;;;19.62;47.87;99528.31;4808244;29;20046;-84
2022/06/06 16:38:08;;;;;;;6.28;2.78;;;;;;;19.66;48.94;99540.28;4785889;29;20179;-87
2022/06/06 16:40:40;;;;;;;12.75;2.70;;;;;;;19.63;48.97;99535.47;4798690;29;20080;-87
2022/06/06 16:49:48;;;;;;;;;;;;;;;19.51;49.53;99564.16;4831105;29;20664;-90
2022/06/06 16:52:34;;;;;;;31.40;4.53;;;;;;;19.43;51.83;99565.19;4827420;29;20059;-85
2022/06/06 16:55:29;;;;;;;54.15;4.82;;;;;;;19.33;53.25;99577.66;4826053;29;20050;-86
2022/06/06 16:58:10;;;;;;;37.45;5.78;;;;;;;19.18;54.04;99564.69;4819664;29;20047;-87
2022/06/06 17:00:53;;;;;;;19.77;3.33;;;;;;;18.96;52.32;99563.44;4805938;29;20504;-85
2022/06/06 17:03:29;;;;;;;19.50;3.60;;;;;;;18.94;51.97;99566.59;4836832;29;20266;-88
2022/06/06 17:09:31;;;;;;;13.98;3.60;;;;;;;18.60;52.39;99570.94;4839848;29;20120;-92
2022/06/06 17:12:37;;;;;;;12.98;3.53;;;;;;;18.61;52.98;99564.25;4840652;29;20076;-86